sensor_id;sensor_type;location;lat;lon;timestamp;P1;durP1;ratioP1;P2;durP2;ratioP2
33716;SDS011;20046;50.746;7.072;2023-10-09T00:01:39;27.98;;;11.07;;
33716;SDS011;20046;50.746;7.072;2023-10-09T00:04:08;27.67;;;9.82;;
33716;SDS011;20046;50.746;7.072;2023-10-09T00:06:35;25.52;;;10.68;;
33716;SDS011;20046;50.746;7.072;2023-10-09T00:09:04;28.20;;;10.82;;
33716;SDS011;20046;50.746;7.072;2023-10-09T00:11:57;23.67;;;10.35;;
33716;SDS011;20046;50.746;7.072;2023-10-09T00:14:23;25.40;;;10.30;;
33716;SDS011;20046;50.746;7.072;2023-10-09T00:16:50;19.05;;;9.77;;
33716;SDS011;20046;50.746;7.072;2023-10-09T00:19:21;23.30;;;10.55;;
33716;SDS011;20046;50.746;7.072;2023-10-09T00:21:56;21.13;;;10.13;;
33716;SDS011;20046;50.746;7.072;2023-10-09T00:24:24;22.73;;;10.30;;
33716;SDS011;20046;50.746;7.072;2023-10-09T00:26:50;23.67;;;10.52;;
33716;SDS011;20046;50.746;7.072;2023-10-09T00:29:16;21.20;;;10.05;;
33716;SDS011;20046;50.746;7.072;2023-10-09T00:31:49;23.92;;;11.18;;
33716;SDS011;20046;50.746;7.072;2023-10-09T00:34:28;24.23;;;10.75;;
33716;SDS011;20046;50.746;7.072;2023-10-09T00:36:54;24.73;;;10.48;;
33716;SDS011;20046;50.746;7.072;2023-10-09T00:39:22;21.67;;;11.27;;
33716;SDS011;20046;50.746;7.072;2023-10-09T00:42:03;27.42;;;11.60;;
33716;SDS011;20046;50.746;7.072;2023-10-09T00:44:32;26.83;;;11.73;;
33716;SDS011;20046;50.746;7.072;2023-10-09T00:47:08;28.70;;;11.52;;
33716;SDS011;20046;50.746;7.072;2023-10-09T00:49:57;25.73;;;11.65;;
33716;SDS011;20046;50.746;7.072;2023-10-09T00:52:29;29.27;;;12.23;;
33716;SDS011;20046;50.746;7.072;2023-10-09T00:55:00;22.60;;;11.13;;
33716;SDS011;20046;50.746;7.072;2023-10-09T00:57:33;25.40;;;12.27;;
33716;SDS011;20046;50.746;7.072;2023-10-09T01:00:02;25.75;;;12.52;;
33716;SDS011;20046;50.746;7.072;2023-10-09T01:02:37;23.75;;;11.35;;
33716;SDS011;20046;50.746;7.072;2023-10-09T01:05:07;29.35;;;12.40;;
33716;SDS011;20046;50.746;7.072;2023-10-09T01:07:44;23.33;;;11.43;;
33716;SDS011;20046;50.746;7.072;2023-10-09T01:10:11;24.85;;;11.32;;
33716;SDS011;20046;50.746;7.072;2023-10-09T01:12:39;27.85;;;12.57;;
33716;SDS011;20046;50.746;7.072;2023-10-09T01:15:09;23.38;;;12.25;;
33716;SDS011;20046;50.746;7.072;2023-10-09T01:17:42;23.83;;;12.20;;
33716;SDS011;20046;50.746;7.072;2023-10-09T01:20:10;25.52;;;11.30;;
33716;SDS011;20046;50.746;7.072;2023-10-09T01:22:42;32.20;;;11.88;;
33716;SDS011;20046;50.746;7.072;2023-10-09T01:25:09;27.20;;;11.88;;
33716;SDS011;20046;50.746;7.072;2023-10-09T01:27:35;27.10;;;12.48;;
33716;SDS011;20046;50.746;7.072;2023-10-09T01:30:05;20.58;;;11.90;;
33716;SDS011;20046;50.746;7.072;2023-10-09T01:32:31;22.60;;;11.02;;
33716;SDS011;20046;50.746;7.072;2023-10-09T01:34:59;23.58;;;11.30;;
33716;SDS011;20046;50.746;7.072;2023-10-09T01:37:25;25.05;;;11.98;;
33716;SDS011;20046;50.746;7.072;2023-10-09T01:39:55;25.52;;;11.75;;
33716;SDS011;20046;50.746;7.072;2023-10-09T01:42:29;25.95;;;11.90;;
33716;SDS011;20046;50.746;7.072;2023-10-09T01:44:55;24.63;;;11.52;;
33716;SDS011;20046;50.746;7.072;2023-10-09T01:47:34;23.10;;;11.50;;
33716;SDS011;20046;50.746;7.072;2023-10-09T01:50:02;26.40;;;12.20;;
33716;SDS011;20046;50.746;7.072;2023-10-09T01:52:37;26.20;;;14.07;;
33716;SDS011;20046;50.746;7.072;2023-10-09T01:55:03;25.05;;;12.40;;
33716;SDS011;20046;50.746;7.072;2023-10-09T01:57:34;22.85;;;12.05;;
33716;SDS011;20046;50.746;7.072;2023-10-09T02:00:04;27.35;;;12.90;;
33716;SDS011;20046;50.746;7.072;2023-10-09T02:02:32;21.55;;;10.85;;
33716;SDS011;20046;50.746;7.072;2023-10-09T02:05:02;19.65;;;11.50;;
33716;SDS011;20046;50.746;7.072;2023-10-09T02:07:47;25.77;;;10.50;;
33716;SDS011;20046;50.746;7.072;2023-10-09T02:10:16;26.17;;;10.43;;
33716;SDS011;20046;50.746;7.072;2023-10-09T02:12:53;20.98;;;10.70;;
33716;SDS011;20046;50.746;7.072;2023-10-09T02:18:11;22.63;;;10.32;;
33716;SDS011;20046;50.746;7.072;2023-10-09T02:20:44;21.35;;;10.68;;
33716;SDS011;20046;50.746;7.072;2023-10-09T02:23:11;28.55;;;10.20;;
33716;SDS011;20046;50.746;7.072;2023-10-09T02:25:45;23.85;;;10.35;;
33716;SDS011;20046;50.746;7.072;2023-10-09T02:28:12;23.27;;;10.77;;
33716;SDS011;20046;50.746;7.072;2023-10-09T02:30:43;25.15;;;10.20;;
33716;SDS011;20046;50.746;7.072;2023-10-09T02:33:16;25.00;;;9.60;;
33716;SDS011;20046;50.746;7.072;2023-10-09T02:35:56;24.55;;;10.85;;
33716;SDS011;20046;50.746;7.072;2023-10-09T02:38:24;23.40;;;10.75;;
33716;SDS011;20046;50.746;7.072;2023-10-09T02:40:51;22.65;;;10.93;;
33716;SDS011;20046;50.746;7.072;2023-10-09T02:43:29;22.10;;;10.23;;
33716;SDS011;20046;50.746;7.072;2023-10-09T02:46:13;19.45;;;10.38;;
33716;SDS011;20046;50.746;7.072;2023-10-09T02:48:43;25.65;;;13.38;;
33716;SDS011;20046;50.746;7.072;2023-10-09T02:53:51;20.75;;;9.45;;
33716;SDS011;20046;50.746;7.072;2023-10-09T02:56:22;24.58;;;10.35;;
33716;SDS011;20046;50.746;7.072;2023-10-09T02:59:08;21.25;;;9.73;;
33716;SDS011;20046;50.746;7.072;2023-10-09T03:01:34;20.63;;;10.07;;
33716;SDS011;20046;50.746;7.072;2023-10-09T03:04:02;20.10;;;10.32;;
33716;SDS011;20046;50.746;7.072;2023-10-09T03:06:30;17.70;;;9.82;;
33716;SDS011;20046;50.746;7.072;2023-10-09T03:08:57;23.95;;;9.85;;
33716;SDS011;20046;50.746;7.072;2023-10-09T03:11:23;19.83;;;8.93;;
33716;SDS011;20046;50.746;7.072;2023-10-09T03:13:51;17.90;;;9.07;;
33716;SDS011;20046;50.746;7.072;2023-10-09T03:16:21;18.80;;;9.00;;
33716;SDS011;20046;50.746;7.072;2023-10-09T03:18:50;20.10;;;9.43;;
33716;SDS011;20046;50.746;7.072;2023-10-09T03:21:17;19.52;;;9.02;;
33716;SDS011;20046;50.746;7.072;2023-10-09T03:23:46;19.88;;;9.65;;
33716;SDS011;20046;50.746;7.072;2023-10-09T03:26:16;17.88;;;10.23;;
33716;SDS011;20046;50.746;7.072;2023-10-09T03:28:46;22.05;;;9.27;;
33716;SDS011;20046;50.746;7.072;2023-10-09T03:31:12;19.50;;;9.27;;
33716;SDS011;20046;50.746;7.072;2023-10-09T03:33:39;22.60;;;10.00;;
33716;SDS011;20046;50.746;7.072;2023-10-09T03:36:05;18.70;;;9.05;;
33716;SDS011;20046;50.746;7.072;2023-10-09T03:38:34;23.00;;;10.48;;
33716;SDS011;20046;50.746;7.072;2023-10-09T03:41:04;22.55;;;9.77;;
33716;SDS011;20046;50.746;7.072;2023-10-09T03:43:31;20.25;;;9.35;;
33716;SDS011;20046;50.746;7.072;2023-10-09T03:46:10;19.25;;;9.48;;
33716;SDS011;20046;50.746;7.072;2023-10-09T03:48:58;18.00;;;9.40;;
33716;SDS011;20046;50.746;7.072;2023-10-09T03:51:27;23.25;;;9.63;;
33716;SDS011;20046;50.746;7.072;2023-10-09T03:53:54;19.33;;;9.10;;
33716;SDS011;20046;50.746;7.072;2023-10-09T03:56:20;17.27;;;8.75;;
33716;SDS011;20046;50.746;7.072;2023-10-09T03:58:49;17.95;;;8.98;;
33716;SDS011;20046;50.746;7.072;2023-10-09T04:01:18;24.35;;;9.38;;
33716;SDS011;20046;50.746;7.072;2023-10-09T04:03:52;24.05;;;9.98;;
33716;SDS011;20046;50.746;7.072;2023-10-09T04:06:24;22.48;;;9.30;;
33716;SDS011;20046;50.746;7.072;2023-10-09T04:08:57;18.70;;;9.27;;
33716;SDS011;20046;50.746;7.072;2023-10-09T04:11:24;17.50;;;8.50;;
33716;SDS011;20046;50.746;7.072;2023-10-09T04:13:50;19.23;;;9.32;;
33716;SDS011;20046;50.746;7.072;2023-10-09T04:16:20;20.30;;;9.63;;
33716;SDS011;20046;50.746;7.072;2023-10-09T04:18:58;23.17;;;9.70;;
33716;SDS011;20046;50.746;7.072;2023-10-09T04:21:36;22.85;;;9.00;;
33716;SDS011;20046;50.746;7.072;2023-10-09T04:26:38;17.83;;;8.43;;
33716;SDS011;20046;50.746;7.072;2023-10-09T04:29:10;17.57;;;9.77;;
33716;SDS011;20046;50.746;7.072;2023-10-09T04:31:44;22.38;;;8.45;;
33716;SDS011;20046;50.746;7.072;2023-10-09T04:34:16;21.88;;;8.55;;
33716;SDS011;20046;50.746;7.072;2023-10-09T04:36:49;13.80;;;8.20;;
33716;SDS011;20046;50.746;7.072;2023-10-09T04:39:16;16.73;;;8.85;;
33716;SDS011;20046;50.746;7.072;2023-10-09T04:41:54;16.80;;;9.45;;
33716;SDS011;20046;50.746;7.072;2023-10-09T04:44:42;23.52;;;9.35;;
33716;SDS011;20046;50.746;7.072;2023-10-09T04:47:27;20.25;;;8.82;;
33716;SDS011;20046;50.746;7.072;2023-10-09T04:52:58;19.60;;;9.25;;
33716;SDS011;20046;50.746;7.072;2023-10-09T04:55:44;21.95;;;9.35;;
33716;SDS011;20046;50.746;7.072;2023-10-09T04:58:22;22.13;;;8.82;;
33716;SDS011;20046;50.746;7.072;2023-10-09T05:00:50;20.02;;;8.60;;
33716;SDS011;20046;50.746;7.072;2023-10-09T05:03:25;24.02;;;9.48;;
33716;SDS011;20046;50.746;7.072;2023-10-09T05:05:55;21.08;;;9.18;;
33716;SDS011;20046;50.746;7.072;2023-10-09T05:08:25;27.58;;;11.18;;
33716;SDS011;20046;50.746;7.072;2023-10-09T05:13:33;25.98;;;9.60;;
33716;SDS011;20046;50.746;7.072;2023-10-09T05:16:05;23.02;;;8.98;;
33716;SDS011;20046;50.746;7.072;2023-10-09T05:18:40;18.02;;;8.50;;
33716;SDS011;20046;50.746;7.072;2023-10-09T05:21:07;22.88;;;10.30;;
33716;SDS011;20046;50.746;7.072;2023-10-09T05:23:38;20.25;;;8.93;;
33716;SDS011;20046;50.746;7.072;2023-10-09T05:26:17;20.48;;;9.55;;
33716;SDS011;20046;50.746;7.072;2023-10-09T05:29:02;17.48;;;8.65;;
33716;SDS011;20046;50.746;7.072;2023-10-09T05:31:47;16.73;;;8.50;;
33716;SDS011;20046;50.746;7.072;2023-10-09T05:34:28;21.73;;;8.10;;
33716;SDS011;20046;50.746;7.072;2023-10-09T05:37:13;20.25;;;9.00;;
33716;SDS011;20046;50.746;7.072;2023-10-09T05:39:54;23.98;;;9.05;;
33716;SDS011;20046;50.746;7.072;2023-10-09T05:45:01;28.17;;;9.73;;
33716;SDS011;20046;50.746;7.072;2023-10-09T05:47:42;22.15;;;9.27;;
33716;SDS011;20046;50.746;7.072;2023-10-09T05:50:23;20.90;;;8.45;;
33716;SDS011;20046;50.746;7.072;2023-10-09T05:52:50;25.35;;;8.75;;
33716;SDS011;20046;50.746;7.072;2023-10-09T05:55:16;19.10;;;8.32;;
33716;SDS011;20046;50.746;7.072;2023-10-09T05:58:01;18.20;;;8.05;;
33716;SDS011;20046;50.746;7.072;2023-10-09T06:00:45;16.05;;;8.73;;
33716;SDS011;20046;50.746;7.072;2023-10-09T06:06:13;18.87;;;8.77;;
33716;SDS011;20046;50.746;7.072;2023-10-09T06:09:04;28.25;;;8.63;;
33716;SDS011;20046;50.746;7.072;2023-10-09T06:11:40;15.80;;;8.15;;
33716;SDS011;20046;50.746;7.072;2023-10-09T06:14:11;23.20;;;9.30;;
33716;SDS011;20046;50.746;7.072;2023-10-09T06:16:38;30.98;;;8.88;;
33716;SDS011;20046;50.746;7.072;2023-10-09T06:21:39;23.08;;;9.20;;
33716;SDS011;20046;50.746;7.072;2023-10-09T06:24:25;21.75;;;9.07;;
33716;SDS011;20046;50.746;7.072;2023-10-09T06:26:58;28.00;;;11.55;;
33716;SDS011;20046;50.746;7.072;2023-10-09T06:29:28;27.90;;;9.50;;
33716;SDS011;20046;50.746;7.072;2023-10-09T06:32:10;22.40;;;10.77;;
33716;SDS011;20046;50.746;7.072;2023-10-09T06:34:59;14.45;;;7.85;;
33716;SDS011;20046;50.746;7.072;2023-10-09T06:37:44;20.33;;;8.05;;
33716;SDS011;20046;50.746;7.072;2023-10-09T06:40:26;22.77;;;8.55;;
33716;SDS011;20046;50.746;7.072;2023-10-09T06:43:10;19.00;;;9.30;;
33716;SDS011;20046;50.746;7.072;2023-10-09T06:45:42;21.80;;;9.20;;
33716;SDS011;20046;50.746;7.072;2023-10-09T06:48:19;24.08;;;8.93;;
33716;SDS011;20046;50.746;7.072;2023-10-09T06:53:33;20.08;;;9.60;;
33716;SDS011;20046;50.746;7.072;2023-10-09T06:56:17;29.90;;;9.23;;
33716;SDS011;20046;50.746;7.072;2023-10-09T06:59:04;31.80;;;9.70;;
33716;SDS011;20046;50.746;7.072;2023-10-09T07:04:34;17.10;;;8.43;;
33716;SDS011;20046;50.746;7.072;2023-10-09T07:07:00;18.10;;;8.25;;
33716;SDS011;20046;50.746;7.072;2023-10-09T07:09:27;21.23;;;9.30;;
33716;SDS011;20046;50.746;7.072;2023-10-09T07:12:08;24.30;;;9.23;;
33716;SDS011;20046;50.746;7.072;2023-10-09T07:14:50;21.75;;;9.23;;
33716;SDS011;20046;50.746;7.072;2023-10-09T07:17:16;17.08;;;9.02;;
33716;SDS011;20046;50.746;7.072;2023-10-09T07:19:51;16.38;;;8.77;;
33716;SDS011;20046;50.746;7.072;2023-10-09T07:22:21;19.02;;;8.25;;
33716;SDS011;20046;50.746;7.072;2023-10-09T07:24:51;25.10;;;8.90;;
33716;SDS011;20046;50.746;7.072;2023-10-09T07:27:30;26.60;;;8.60;;
33716;SDS011;20046;50.746;7.072;2023-10-09T07:30:09;29.33;;;11.48;;
33716;SDS011;20046;50.746;7.072;2023-10-09T07:35:36;17.38;;;8.02;;
33716;SDS011;20046;50.746;7.072;2023-10-09T07:40:35;24.38;;;8.50;;
33716;SDS011;20046;50.746;7.072;2023-10-09T07:43:41;31.90;;;10.30;;
33716;SDS011;20046;50.746;7.072;2023-10-09T07:46:13;19.13;;;8.45;;
33716;SDS011;20046;50.746;7.072;2023-10-09T07:49:01;22.05;;;8.02;;
33716;SDS011;20046;50.746;7.072;2023-10-09T07:51:35;16.60;;;7.85;;
33716;SDS011;20046;50.746;7.072;2023-10-09T07:54:02;14.35;;;7.35;;
33716;SDS011;20046;50.746;7.072;2023-10-09T07:56:37;21.00;;;9.07;;
33716;SDS011;20046;50.746;7.072;2023-10-09T07:59:08;17.45;;;8.18;;
33716;SDS011;20046;50.746;7.072;2023-10-09T08:01:39;22.40;;;8.65;;
33716;SDS011;20046;50.746;7.072;2023-10-09T08:04:17;29.17;;;9.20;;
33716;SDS011;20046;50.746;7.072;2023-10-09T08:06:45;32.33;;;9.40;;
33716;SDS011;20046;50.746;7.072;2023-10-09T08:09:12;32.40;;;9.48;;
33716;SDS011;20046;50.746;7.072;2023-10-09T08:11:42;26.55;;;9.43;;
33716;SDS011;20046;50.746;7.072;2023-10-09T08:14:29;24.60;;;10.38;;
33716;SDS011;20046;50.746;7.072;2023-10-09T08:16:58;25.48;;;9.57;;
33716;SDS011;20046;50.746;7.072;2023-10-09T08:19:38;27.33;;;9.25;;
33716;SDS011;20046;50.746;7.072;2023-10-09T08:22:24;22.42;;;9.38;;
33716;SDS011;20046;50.746;7.072;2023-10-09T08:24:50;24.35;;;9.60;;
33716;SDS011;20046;50.746;7.072;2023-10-09T08:27:26;22.15;;;8.88;;
33716;SDS011;20046;50.746;7.072;2023-10-09T08:29:58;24.42;;;10.32;;
33716;SDS011;20046;50.746;7.072;2023-10-09T08:32:37;22.30;;;8.23;;
33716;SDS011;20046;50.746;7.072;2023-10-09T08:35:04;21.80;;;7.80;;
33716;SDS011;20046;50.746;7.072;2023-10-09T08:37:44;20.42;;;7.63;;
33716;SDS011;20046;50.746;7.072;2023-10-09T08:40:13;21.50;;;8.43;;
33716;SDS011;20046;50.746;7.072;2023-10-09T08:42:38;23.23;;;9.60;;
33716;SDS011;20046;50.746;7.072;2023-10-09T08:45:04;19.70;;;8.85;;
33716;SDS011;20046;50.746;7.072;2023-10-09T08:47:31;25.25;;;8.95;;
33716;SDS011;20046;50.746;7.072;2023-10-09T08:49:58;17.50;;;7.78;;
33716;SDS011;20046;50.746;7.072;2023-10-09T08:52:24;16.63;;;7.88;;
33716;SDS011;20046;50.746;7.072;2023-10-09T08:54:50;19.33;;;8.88;;
33716;SDS011;20046;50.746;7.072;2023-10-09T08:57:16;21.63;;;9.65;;
33716;SDS011;20046;50.746;7.072;2023-10-09T08:59:44;19.02;;;8.13;;
33716;SDS011;20046;50.746;7.072;2023-10-09T09:02:09;16.88;;;8.05;;
33716;SDS011;20046;50.746;7.072;2023-10-09T09:04:40;16.02;;;7.05;;
33716;SDS011;20046;50.746;7.072;2023-10-09T09:07:11;21.10;;;8.15;;
33716;SDS011;20046;50.746;7.072;2023-10-09T09:09:57;24.25;;;7.95;;
33716;SDS011;20046;50.746;7.072;2023-10-09T09:12:27;16.95;;;7.78;;
33716;SDS011;20046;50.746;7.072;2023-10-09T09:14:56;19.85;;;7.38;;
33716;SDS011;20046;50.746;7.072;2023-10-09T09:17:22;21.67;;;7.13;;
33716;SDS011;20046;50.746;7.072;2023-10-09T09:19:55;19.38;;;6.97;;
33716;SDS011;20046;50.746;7.072;2023-10-09T09:22:22;15.10;;;7.18;;
33716;SDS011;20046;50.746;7.072;2023-10-09T09:24:57;20.13;;;7.68;;
33716;SDS011;20046;50.746;7.072;2023-10-09T09:27:44;21.23;;;8.50;;
33716;SDS011;20046;50.746;7.072;2023-10-09T09:30:30;17.52;;;7.38;;
33716;SDS011;20046;50.746;7.072;2023-10-09T09:33:16;17.30;;;7.10;;
33716;SDS011;20046;50.746;7.072;2023-10-09T09:36:04;15.60;;;7.13;;
33716;SDS011;20046;50.746;7.072;2023-10-09T09:38:31;12.55;;;6.55;;
33716;SDS011;20046;50.746;7.072;2023-10-09T09:41:12;15.80;;;7.15;;
33716;SDS011;20046;50.746;7.072;2023-10-09T09:43:54;15.02;;;7.00;;
33716;SDS011;20046;50.746;7.072;2023-10-09T09:46:31;16.35;;;6.88;;
33716;SDS011;20046;50.746;7.072;2023-10-09T09:49:01;18.38;;;6.75;;
33716;SDS011;20046;50.746;7.072;2023-10-09T09:51:31;12.90;;;5.95;;
33716;SDS011;20046;50.746;7.072;2023-10-09T09:53:57;11.90;;;6.20;;
33716;SDS011;20046;50.746;7.072;2023-10-09T09:56:25;17.30;;;6.57;;
33716;SDS011;20046;50.746;7.072;2023-10-09T09:58:50;16.42;;;6.68;;
33716;SDS011;20046;50.746;7.072;2023-10-09T10:01:25;14.05;;;6.25;;
33716;SDS011;20046;50.746;7.072;2023-10-09T10:04:01;15.52;;;6.55;;
33716;SDS011;20046;50.746;7.072;2023-10-09T10:06:37;15.00;;;5.93;;
33716;SDS011;20046;50.746;7.072;2023-10-09T10:09:05;15.25;;;5.63;;
33716;SDS011;20046;50.746;7.072;2023-10-09T10:11:45;12.43;;;5.82;;
33716;SDS011;20046;50.746;7.072;2023-10-09T10:14:16;13.05;;;5.95;;
33716;SDS011;20046;50.746;7.072;2023-10-09T10:17:03;14.80;;;6.10;;
33716;SDS011;20046;50.746;7.072;2023-10-09T10:22:42;10.55;;;5.32;;
33716;SDS011;20046;50.746;7.072;2023-10-09T10:25:32;10.13;;;5.05;;
33716;SDS011;20046;50.746;7.072;2023-10-09T10:31:10;10.90;;;5.28;;
33716;SDS011;20046;50.746;7.072;2023-10-09T10:36:20;10.88;;;4.80;;
33716;SDS011;20046;50.746;7.072;2023-10-09T10:39:02;11.52;;;5.30;;
33716;SDS011;20046;50.746;7.072;2023-10-09T10:41:30;14.98;;;5.40;;
33716;SDS011;20046;50.746;7.072;2023-10-09T10:44:01;13.65;;;5.80;;
33716;SDS011;20046;50.746;7.072;2023-10-09T10:46:45;9.98;;;5.25;;
33716;SDS011;20046;50.746;7.072;2023-10-09T10:49:16;9.48;;;5.28;;
33716;SDS011;20046;50.746;7.072;2023-10-09T10:51:51;11.73;;;5.43;;
33716;SDS011;20046;50.746;7.072;2023-10-09T10:54:26;10.95;;;5.38;;
33716;SDS011;20046;50.746;7.072;2023-10-09T10:56:58;13.25;;;5.82;;
33716;SDS011;20046;50.746;7.072;2023-10-09T10:59:25;12.77;;;5.10;;
33716;SDS011;20046;50.746;7.072;2023-10-09T11:01:58;11.80;;;5.50;;
33716;SDS011;20046;50.746;7.072;2023-10-09T11:04:28;11.27;;;5.68;;
33716;SDS011;20046;50.746;7.072;2023-10-09T11:07:00;9.25;;;5.03;;
33716;SDS011;20046;50.746;7.072;2023-10-09T11:12:31;11.10;;;5.20;;
33716;SDS011;20046;50.746;7.072;2023-10-09T11:15:31;12.82;;;5.35;;
33716;SDS011;20046;50.746;7.072;2023-10-09T11:18:11;12.65;;;5.53;;
33716;SDS011;20046;50.746;7.072;2023-10-09T11:20:44;11.05;;;5.75;;
33716;SDS011;20046;50.746;7.072;2023-10-09T11:23:38;11.70;;;5.03;;
33716;SDS011;20046;50.746;7.072;2023-10-09T11:26:18;13.70;;;5.40;;
33716;SDS011;20046;50.746;7.072;2023-10-09T11:29:09;11.45;;;5.32;;
33716;SDS011;20046;50.746;7.072;2023-10-09T11:32:01;12.07;;;6.00;;
33716;SDS011;20046;50.746;7.072;2023-10-09T11:34:30;8.23;;;4.80;;
33716;SDS011;20046;50.746;7.072;2023-10-09T11:36:57;14.55;;;5.68;;
33716;SDS011;20046;50.746;7.072;2023-10-09T11:39:46;12.93;;;5.63;;
33716;SDS011;20046;50.746;7.072;2023-10-09T11:42:25;9.07;;;4.78;;
33716;SDS011;20046;50.746;7.072;2023-10-09T11:45:06;11.23;;;4.97;;
33716;SDS011;20046;50.746;7.072;2023-10-09T11:47:49;12.35;;;4.90;;
33716;SDS011;20046;50.746;7.072;2023-10-09T11:53:44;14.90;;;5.25;;
33716;SDS011;20046;50.746;7.072;2023-10-09T11:56:21;14.35;;;5.30;;
33716;SDS011;20046;50.746;7.072;2023-10-09T11:58:47;9.43;;;4.95;;
33716;SDS011;20046;50.746;7.072;2023-10-09T12:01:15;13.93;;;5.95;;
33716;SDS011;20046;50.746;7.072;2023-10-09T12:03:42;18.65;;;5.80;;
33716;SDS011;20046;50.746;7.072;2023-10-09T12:06:14;16.02;;;6.10;;
33716;SDS011;20046;50.746;7.072;2023-10-09T12:08:39;15.80;;;6.22;;
33716;SDS011;20046;50.746;7.072;2023-10-09T12:11:05;11.93;;;5.20;;
33716;SDS011;20046;50.746;7.072;2023-10-09T12:13:38;13.63;;;5.25;;
33716;SDS011;20046;50.746;7.072;2023-10-09T12:16:04;14.63;;;4.95;;
33716;SDS011;20046;50.746;7.072;2023-10-09T12:18:35;14.60;;;6.95;;
33716;SDS011;20046;50.746;7.072;2023-10-09T12:21:04;13.70;;;5.68;;
33716;SDS011;20046;50.746;7.072;2023-10-09T12:23:31;12.35;;;5.95;;
33716;SDS011;20046;50.746;7.072;2023-10-09T12:26:05;11.95;;;5.70;;
33716;SDS011;20046;50.746;7.072;2023-10-09T12:28:39;13.10;;;6.55;;
33716;SDS011;20046;50.746;7.072;2023-10-09T12:31:05;14.70;;;6.22;;
33716;SDS011;20046;50.746;7.072;2023-10-09T12:33:30;14.10;;;5.78;;
33716;SDS011;20046;50.746;7.072;2023-10-09T12:35:56;14.13;;;6.32;;
33716;SDS011;20046;50.746;7.072;2023-10-09T12:38:28;12.77;;;5.57;;
33716;SDS011;20046;50.746;7.072;2023-10-09T12:41:01;17.35;;;6.47;;
33716;SDS011;20046;50.746;7.072;2023-10-09T12:43:50;11.07;;;5.03;;
33716;SDS011;20046;50.746;7.072;2023-10-09T12:46:17;17.75;;;5.05;;
33716;SDS011;20046;50.746;7.072;2023-10-09T12:48:43;14.95;;;5.60;;
33716;SDS011;20046;50.746;7.072;2023-10-09T12:51:13;15.43;;;5.07;;
33716;SDS011;20046;50.746;7.072;2023-10-09T12:53:42;13.25;;;5.28;;
33716;SDS011;20046;50.746;7.072;2023-10-09T12:56:08;17.95;;;5.93;;
33716;SDS011;20046;50.746;7.072;2023-10-09T12:58:34;13.18;;;4.72;;
33716;SDS011;20046;50.746;7.072;2023-10-09T13:01:03;16.73;;;5.32;;
33716;SDS011;20046;50.746;7.072;2023-10-09T13:06:05;13.68;;;5.03;;
33716;SDS011;20046;50.746;7.072;2023-10-09T13:08:37;11.02;;;5.50;;
33716;SDS011;20046;50.746;7.072;2023-10-09T13:11:06;13.77;;;6.68;;
33716;SDS011;20046;50.746;7.072;2023-10-09T13:13:36;10.65;;;5.10;;
33716;SDS011;20046;50.746;7.072;2023-10-09T13:16:16;16.15;;;5.50;;
33716;SDS011;20046;50.746;7.072;2023-10-09T13:18:49;13.88;;;5.60;;
33716;SDS011;20046;50.746;7.072;2023-10-09T13:23:46;16.17;;;6.28;;
33716;SDS011;20046;50.746;7.072;2023-10-09T13:26:12;15.05;;;5.55;;
33716;SDS011;20046;50.746;7.072;2023-10-09T13:28:49;13.63;;;5.55;;
33716;SDS011;20046;50.746;7.072;2023-10-09T13:31:16;13.93;;;5.88;;
33716;SDS011;20046;50.746;7.072;2023-10-09T13:33:42;12.25;;;5.50;;
33716;SDS011;20046;50.746;7.072;2023-10-09T13:36:12;14.75;;;5.88;;
33716;SDS011;20046;50.746;7.072;2023-10-09T13:38:45;11.95;;;5.40;;
33716;SDS011;20046;50.746;7.072;2023-10-09T13:41:11;24.58;;;5.93;;
33716;SDS011;20046;50.746;7.072;2023-10-09T13:43:42;17.65;;;5.97;;
33716;SDS011;20046;50.746;7.072;2023-10-09T13:46:11;14.63;;;5.95;;
33716;SDS011;20046;50.746;7.072;2023-10-09T13:48:41;14.68;;;5.72;;
33716;SDS011;20046;50.746;7.072;2023-10-09T13:51:10;21.75;;;6.10;;
33716;SDS011;20046;50.746;7.072;2023-10-09T13:53:42;13.02;;;5.45;;
33716;SDS011;20046;50.746;7.072;2023-10-09T13:56:16;14.57;;;5.18;;
33716;SDS011;20046;50.746;7.072;2023-10-09T13:58:49;17.88;;;6.90;;
33716;SDS011;20046;50.746;7.072;2023-10-09T14:01:16;15.77;;;5.97;;
33716;SDS011;20046;50.746;7.072;2023-10-09T14:03:58;13.60;;;5.60;;
33716;SDS011;20046;50.746;7.072;2023-10-09T14:06:25;17.70;;;5.40;;
33716;SDS011;20046;50.746;7.072;2023-10-09T14:09:01;12.33;;;4.83;;
33716;SDS011;20046;50.746;7.072;2023-10-09T14:11:30;14.53;;;6.33;;
33716;SDS011;20046;50.746;7.072;2023-10-09T14:13:57;15.00;;;5.95;;
33716;SDS011;20046;50.746;7.072;2023-10-09T14:16:26;14.02;;;5.32;;
33716;SDS011;20046;50.746;7.072;2023-10-09T14:18:55;14.63;;;6.28;;
33716;SDS011;20046;50.746;7.072;2023-10-09T14:21:23;13.20;;;5.90;;
33716;SDS011;20046;50.746;7.072;2023-10-09T14:23:51;12.40;;;5.60;;
33716;SDS011;20046;50.746;7.072;2023-10-09T14:26:21;11.18;;;5.45;;
33716;SDS011;20046;50.746;7.072;2023-10-09T14:28:55;16.07;;;5.13;;
33716;SDS011;20046;50.746;7.072;2023-10-09T14:31:24;15.52;;;5.65;;
33716;SDS011;20046;50.746;7.072;2023-10-09T14:33:54;13.05;;;5.40;;
33716;SDS011;20046;50.746;7.072;2023-10-09T14:36:20;10.18;;;5.22;;
33716;SDS011;20046;50.746;7.072;2023-10-09T14:38:58;12.77;;;6.32;;
33716;SDS011;20046;50.746;7.072;2023-10-09T14:41:25;12.35;;;5.93;;
33716;SDS011;20046;50.746;7.072;2023-10-09T14:43:52;14.00;;;5.78;;
33716;SDS011;20046;50.746;7.072;2023-10-09T14:46:18;14.50;;;5.97;;
33716;SDS011;20046;50.746;7.072;2023-10-09T14:51:20;15.18;;;5.90;;
33716;SDS011;20046;50.746;7.072;2023-10-09T14:53:52;17.85;;;6.40;;
33716;SDS011;20046;50.746;7.072;2023-10-09T14:56:18;19.05;;;6.25;;
33716;SDS011;20046;50.746;7.072;2023-10-09T14:58:53;15.90;;;6.53;;
33716;SDS011;20046;50.746;7.072;2023-10-09T15:01:26;17.98;;;5.70;;
33716;SDS011;20046;50.746;7.072;2023-10-09T15:03:56;18.38;;;6.15;;
33716;SDS011;20046;50.746;7.072;2023-10-09T15:06:24;15.57;;;7.75;;
33716;SDS011;20046;50.746;7.072;2023-10-09T15:08:54;13.45;;;7.20;;
33716;SDS011;20046;50.746;7.072;2023-10-09T15:11:24;11.85;;;5.85;;
33716;SDS011;20046;50.746;7.072;2023-10-09T15:13:54;14.18;;;6.47;;
33716;SDS011;20046;50.746;7.072;2023-10-09T15:16:22;20.85;;;8.35;;
33716;SDS011;20046;50.746;7.072;2023-10-09T15:18:51;15.52;;;6.22;;
33716;SDS011;20046;50.746;7.072;2023-10-09T15:21:19;12.25;;;6.75;;
33716;SDS011;20046;50.746;7.072;2023-10-09T15:23:51;14.57;;;6.35;;
33716;SDS011;20046;50.746;7.072;2023-10-09T15:26:19;12.55;;;6.97;;
33716;SDS011;20046;50.746;7.072;2023-10-09T15:28:46;16.50;;;6.07;;
33716;SDS011;20046;50.746;7.072;2023-10-09T15:31:11;14.15;;;6.50;;
33716;SDS011;20046;50.746;7.072;2023-10-09T15:33:39;16.33;;;6.43;;
33716;SDS011;20046;50.746;7.072;2023-10-09T15:36:12;11.40;;;6.28;;
33716;SDS011;20046;50.746;7.072;2023-10-09T15:38:39;15.27;;;5.90;;
33716;SDS011;20046;50.746;7.072;2023-10-09T15:41:05;13.90;;;6.25;;
33716;SDS011;20046;50.746;7.072;2023-10-09T15:43:34;13.38;;;6.13;;
33716;SDS011;20046;50.746;7.072;2023-10-09T15:46:00;20.67;;;6.00;;
33716;SDS011;20046;50.746;7.072;2023-10-09T15:48:26;12.88;;;5.63;;
33716;SDS011;20046;50.746;7.072;2023-10-09T15:50:52;19.08;;;6.00;;
33716;SDS011;20046;50.746;7.072;2023-10-09T15:53:19;13.70;;;6.22;;
33716;SDS011;20046;50.746;7.072;2023-10-09T15:55:44;28.73;;;11.40;;
33716;SDS011;20046;50.746;7.072;2023-10-09T15:58:11;16.38;;;5.97;;